ADDS TAF Data INFO

IDs: Format: Raw Decoded Include METARs

Data at: 1303 UTC 20 Oct 2014

Region: TOP
KATL 201136Z 2012/2118 13003KT P6SM SKC
  FM201600 22005KT P6SM FEW040 FEW250
  FM210000 27003KT P6SM SCT100
  FM211400 31008KT P6SM FEW030


KBOS 201120Z 2012/2118 26007KT P6SM FEW250
  FM210000 23008KT P6SM BKN100
  FM210600 20004KT P6SM BKN025
  FM211100 13006KT P6SM OVC025
  FM211700 12010KT P6SM OVC025


KBWI 201134Z 2012/2118 00000KT P6SM SCT200
  FM201500 17006KT P6SM BKN200
  FM201800 18010KT P6SM BKN200
  FM202300 17006KT P6SM BKN200
  FM211000 00000KT P6SM OVC060


KCLE 201130Z 2012/2118 19008KT P6SM -SHRA BKN070 OVC100
  FM201400 20012G18KT P6SM VCSH BKN080 OVC120
  FM202100 22014G20KT 6SM -SHRA BKN035 OVC060
  FM210300 25008KT 4SM -SHRA BR BKN012 OVC025
  FM210700 28008KT 3SM -SHRA BR BKN008 OVC015
  FM211400 30014G20KT 6SM -SHRA OVC010


KCLT 201134Z 2012/2112 00000KT P6SM BKN240
  FM201400 19006KT P6SM FEW050 SCT250
  FM210100 00000KT P6SM SCT250


KCVG 201122Z 2012/2118 21006KT P6SM VCSH BKN100
  FM201500 22012G18KT P6SM BKN035 BKN060
  TEMPO 2023/2102 24008KT -SHRA OVC030
  FM210200 29006KT P6SM SCT030
  FM210800 30006KT P6SM OVC040
  FM211500 33012KT P6SM SCT040


KDCA 201134Z 2012/2112 VRB03KT P6SM SCT200
  FM201500 17007KT P6SM SCT200
  FM201800 18011KT P6SM BKN200
  FM202300 17006KT P6SM BKN200


KDEN 201120Z 2012/2118 23009KT P6SM FEW200
  FM201500 19006KT P6SM FEW220
  FM201800 14014KT P6SM FEW120 SCT220
  FM210300 18012KT P6SM SCT220
  FM210600 20010KT P6SM FEW140 SCT200
  FM211400 22008KT P6SM SCT090 BKN140


KDFW 201131Z 2012/2118 15006KT P6SM FEW050 BKN200

KDTW 201124Z 2012/2118 21010KT P6SM BKN050
  FM201800 22010KT P6SM -SHRA BKN040
  FM202300 29007KT P6SM BKN025 OVC040
  FM210800 32008KT P6SM OVC015


KEWR 201123Z 2012/2118 25005KT P6SM BKN220
  FM201400 23008KT P6SM SCT150 BKN200
  FM202000 21010KT P6SM FEW040 OVC150
  FM210000 21006KT P6SM SCT035 OVC120
  FM210600 21005KT P6SM BKN035 OVC100
  FM211000 15004KT P6SM BKN035


KFLL 201136Z 2012/2112 VRB03KT P6SM FEW045 FEW250
  FM201400 12010KT P6SM SCT035 SCT250
  FM210000 12004KT P6SM FEW030 SCT250


KIAD 201134Z 2012/2118 00000KT P6SM SCT200
  FM201400 19006KT P6SM SCT200
  FM201600 17010KT P6SM BKN200
  FM202300 17005KT P6SM BKN200
  FM211000 00000KT P6SM OVC060


KIAH 201130Z 2012/2118 05004KT P6SM FEW250
  FM201500 07008KT P6SM BKN250
  FM210300 06003KT P6SM SCT250
  FM211500 06008KT P6SM SCT250


KJFK 201123Z 2012/2118 27006KT P6SM BKN220
  FM201400 22010KT P6SM SCT150 BKN200
  FM202000 20012KT P6SM FEW035 OVC150
  FM210000 20009KT P6SM SCT035 OVC120
  FM210600 20006KT P6SM BKN035 OVC100
  FM211000 15006KT P6SM BKN035


KLAS 201120Z 2012/2112 20008KT P6SM SKC
  FM201400 VRB05KT P6SM SKC
  FM201700 07007KT P6SM FEW140
  FM202200 17008KT P6SM SCT140
  FM210300 21010KT P6SM FEW140


KLAX 201132Z 2012/2118 VRB05KT P6SM BKN015
  FM201400 VRB03KT P6SM OVC013
  FM201700 VRB03KT P6SM BKN020
  FM202000 25012KT P6SM SCT022 BKN150
  FM210400 25006KT P6SM BKN015
  FM210800 VRB05KT P6SM OVC015
  FM211100 VRB05KT 5SM BR OVC010
  FM211700 VRB05KT P6SM SCT020


KLGA 201123Z 2012/2112 27007KT P6SM BKN220
  FM201400 23009KT P6SM SCT150 BKN200
  FM202000 21011KT P6SM FEW040 OVC150
  FM210000 20008KT P6SM SCT035 OVC120
  FM210600 20006KT P6SM BKN035 OVC100
  FM211000 15005KT P6SM BKN035


KMCO 201137Z 2012/2112 VRB03KT P6SM SKC
  FM201500 14006KT P6SM SCT040
  FM210100 VRB02KT P6SM FEW040 BKN250


KMDW 201125Z 2012/2112 25008KT P6SM SCT070
  FM201400 30009KT P6SM SCT035
  FM201700 32011KT P6SM BKN035
  FM202000 35011KT P6SM BKN030
  FM202300 01007KT P6SM OVC030
  FM210400 35008KT P6SM BKN035


KMEM 201120Z 2012/2112 00000KT P6SM FEW140
  FM202100 26006KT P6SM BKN100
  FM210100 01002KT P6SM SKC


KMIA 201136Z 2012/2112 VRB03KT P6SM FEW040 FEW250
  FM201500 11010KT P6SM SCT035 SCT250
  FM210000 12004KT P6SM FEW030 SCT250
  FM210600 00000KT P6SM FEW030 SCT250


KMSP 201132Z 2012/2118 28005KT P6SM SKC
  FM201600 31009KT P6SM SCT040
  FM210000 02004KT P6SM SKC
  FM211000 11004KT P6SM SKC


KORD 201125Z 2012/2118 26008KT P6SM SCT070
  FM201400 30009KT P6SM SCT035
  FM201700 32011KT P6SM BKN035
  FM202000 35011KT P6SM BKN030
  FM202300 01007KT P6SM OVC030
  FM210400 35008KT P6SM BKN035
  FM211300 01011G17KT P6SM SCT025 BKN035


KPDX 201132Z 2012/2112 16005KT P6SM -RA SCT025 BKN040 OVC060
  FM201600 19006KT P6SM VCSH SCT025 BKN060
  FM202000 18009KT P6SM -SHRA SCT025 BKN060
  FM210600 16004KT P6SM -SHRA BKN035 OVC050


KPHL 201120Z 2012/2118 19003KT P6SM BKN250
  FM201500 22010KT P6SM SCT150 BKN250
  FM210000 21005KT P6SM BKN150
  FM210400 21005KT P6SM OVC100
  FM210800 24003KT P6SM SCT040 OVC080


KPHX 201121Z 2012/2112 10004KT P6SM FEW140
  FM202300 26004KT P6SM SKC
  FM210300 10004KT P6SM SKC


KPIT 201128Z 2012/2118 20003KT P6SM OVC150
  FM201500 22010KT P6SM BKN100
  FM202300 20005KT P6SM -SHRA OVC050
  FM210600 25005KT P6SM VCSH BKN025


KSAN 201121Z 2012/2118 VRB04KT P6SM BKN020
  FM201800 29009KT P6SM SCT025
  FM210100 VRB04KT P6SM OVC020
  FM211700 VRB04KT P6SM SCT025


KSEA 201120Z 2012/2118 14007KT 6SM -RA BR SCT030 OVC050
  TEMPO 2013/2016 5SM -RA BR OVC025
  FM201800 21009KT P6SM -SHRA BKN035 OVC050
  FM210600 19006KT P6SM VCSH OVC030


KSFO 201129Z 2012/2118 15005KT P6SM FEW011 SCT025
  TEMPO 2012/2014 BKN018
  FM201400 17006KT P6SM OVC018
  TEMPO 2016/2019 6SM -RA BR
  FM202000 28015KT P6SM SCT025 BKN035
  FM210400 27009KT P6SM SCT020 SCT030
  FM211200 28005KT P6SM BKN015


KSLC 201120Z 2012/2118 15006KT P6SM SKC
  FM202100 33007KT P6SM SCT180
  FM210300 15012G20KT P6SM SCT150


KSTL 201120Z 2012/2118 25006KT P6SM SCT100
  FM201800 29010KT P6SM SCT050
  FM202300 32006KT P6SM SKC
  FM211500 36008KT P6SM SKC


KTPA 201128Z 2012/2112 07005KT P6SM FEW250
  FM201500 14007KT P6SM FEW025 SCT250
  FM201900 24007KT P6SM SCT040 SCT250
  FM210000 VRB03KT P6SM SCT250



Page loaded:  13:03 UTC  |   06:03 AM Pacific  |   07:03 AM Mountain  |   08:03 AM Central  |   09:03 AM Eastern

 

ADVISORIES

FORECASTS

FORECASTS

OBSERVATIONS

USER TOOLS

ABOUT US